sensor_id;sensor_type;location;lat;lon;timestamp;P1;P2;P0
46681;PMS5003;34101;53.430;-2.224;2022-10-03T00:00:33;17;15;
46681;PMS5003;34101;53.430;-2.224;2022-10-03T00:03:23;14;12;
46681;PMS5003;34101;53.430;-2.224;2022-10-03T00:06:03;12;11;
46681;PMS5003;34101;53.430;-2.224;2022-10-03T00:08:41;11;11;
46681;PMS5003;34101;53.430;-2.224;2022-10-03T00:11:20;14;14;
46681;PMS5003;34101;53.430;-2.224;2022-10-03T00:13:59;13;12;
46681;PMS5003;34101;53.430;-2.224;2022-10-03T00:16:34;15;14;
46681;PMS5003;34101;53.430;-2.224;2022-10-03T00:19:08;14;13;
46681;PMS5003;34101;53.430;-2.224;2022-10-03T00:21:48;17;15;
46681;PMS5003;34101;53.430;-2.224;2022-10-03T00:24:29;16;15;
46681;PMS5003;34101;53.430;-2.224;2022-10-03T00:27:13;15;13;
46681;PMS5003;34101;53.430;-2.224;2022-10-03T00:29:48;14;13;
46681;PMS5003;34101;53.430;-2.224;2022-10-03T00:32:24;13;13;
46681;PMS5003;34101;53.430;-2.224;2022-10-03T00:35:01;19;17;
46681;PMS5003;34101;53.430;-2.224;2022-10-03T00:37:42;15;15;
46681;PMS5003;34101;53.430;-2.224;2022-10-03T00:40:28;17;14;
46681;PMS5003;34101;53.430;-2.224;2022-10-03T00:43:12;11;9;
46681;PMS5003;34101;53.430;-2.224;2022-10-03T00:47:11;11;11;
46681;PMS5003;34101;53.430;-2.224;2022-10-03T00:50:16;11;11;
46681;PMS5003;34101;53.430;-2.224;2022-10-03T00:53:04;10;10;
46681;PMS5003;34101;53.430;-2.224;2022-10-03T00:55:45;12;11;
46681;PMS5003;34101;53.430;-2.224;2022-10-03T00:58:28;10;10;
46681;PMS5003;34101;53.430;-2.224;2022-10-03T01:01:23;13;12;
46681;PMS5003;34101;53.430;-2.224;2022-10-03T01:04:04;10;10;
46681;PMS5003;34101;53.430;-2.224;2022-10-03T01:06:41;11;11;
46681;PMS5003;34101;53.430;-2.224;2022-10-03T01:09:19;12;12;
46681;PMS5003;34101;53.430;-2.224;2022-10-03T01:12:05;12;12;
46681;PMS5003;34101;53.430;-2.224;2022-10-03T01:14:48;12;9;
46681;PMS5003;34101;53.430;-2.224;2022-10-03T01:17:32;15;12;
46681;PMS5003;34101;53.430;-2.224;2022-10-03T01:20:11;13;13;
46681;PMS5003;34101;53.430;-2.224;2022-10-03T01:23:11;9;9;
46681;PMS5003;34101;53.430;-2.224;2022-10-03T01:26:02;10;10;
46681;PMS5003;34101;53.430;-2.224;2022-10-03T01:28:41;15;11;
46681;PMS5003;34101;53.430;-2.224;2022-10-03T01:31:15;16;15;
46681;PMS5003;34101;53.430;-2.224;2022-10-03T01:33:50;12;10;
46681;PMS5003;34101;53.430;-2.224;2022-10-03T01:36:27;9;9;
46681;PMS5003;34101;53.430;-2.224;2022-10-03T01:39:01;11;9;
46681;PMS5003;34101;53.430;-2.224;2022-10-03T01:41:43;15;10;
46681;PMS5003;34101;53.430;-2.224;2022-10-03T01:44:17;12;12;
46681;PMS5003;34101;53.430;-2.224;2022-10-03T01:46:51;11;8;
46681;PMS5003;34101;53.430;-2.224;2022-10-03T01:49:33;12;11;
46681;PMS5003;34101;53.430;-2.224;2022-10-03T01:52:07;11;9;
46681;PMS5003;34101;53.430;-2.224;2022-10-03T01:54:41;12;11;
46681;PMS5003;34101;53.430;-2.224;2022-10-03T01:57:17;9;9;
46681;PMS5003;34101;53.430;-2.224;2022-10-03T01:59:52;15;11;
46681;PMS5003;34101;53.430;-2.224;2022-10-03T02:02:28;14;11;
46681;PMS5003;34101;53.430;-2.224;2022-10-03T02:05:02;11;11;
46681;PMS5003;34101;53.430;-2.224;2022-10-03T02:07:39;11;11;
46681;PMS5003;34101;53.430;-2.224;2022-10-03T02:10:18;9;9;
46681;PMS5003;34101;53.430;-2.224;2022-10-03T02:12:53;12;10;
46681;PMS5003;34101;53.430;-2.224;2022-10-03T02:15:29;9;9;
46681;PMS5003;34101;53.430;-2.224;2022-10-03T02:18:01;14;10;
46681;PMS5003;34101;53.430;-2.224;2022-10-03T02:20:42;10;9;
46681;PMS5003;34101;53.430;-2.224;2022-10-03T02:23:21;10;10;
46681;PMS5003;34101;53.430;-2.224;2022-10-03T02:26:06;11;10;
46681;PMS5003;34101;53.430;-2.224;2022-10-03T02:29:04;11;10;
46681;PMS5003;34101;53.430;-2.224;2022-10-03T02:31:56;10;10;
46681;PMS5003;34101;53.430;-2.224;2022-10-03T02:35:15;12;11;
46681;PMS5003;34101;53.430;-2.224;2022-10-03T02:37:59;7;7;
46681;PMS5003;34101;53.430;-2.224;2022-10-03T02:40:48;13;12;
46681;PMS5003;34101;53.430;-2.224;2022-10-03T02:43:46;12;9;
46681;PMS5003;34101;53.430;-2.224;2022-10-03T02:46:42;8;8;
46681;PMS5003;34101;53.430;-2.224;2022-10-03T02:49:01;8;8;
46681;PMS5003;34101;53.430;-2.224;2022-10-03T02:51:48;9;8;
46681;PMS5003;34101;53.430;-2.224;2022-10-03T02:54:34;8;8;
46681;PMS5003;34101;53.430;-2.224;2022-10-03T02:57:06;9;9;
46681;PMS5003;34101;53.430;-2.224;2022-10-03T03:00:59;8;8;
46681;PMS5003;34101;53.430;-2.224;2022-10-03T03:03:56;7;7;
46681;PMS5003;34101;53.430;-2.224;2022-10-03T03:06:47;6;5;
46681;PMS5003;34101;53.430;-2.224;2022-10-03T03:09:40;6;6;
46681;PMS5003;34101;53.430;-2.224;2022-10-03T03:12:27;7;7;
46681;PMS5003;34101;53.430;-2.224;2022-10-03T03:15:19;10;9;
46681;PMS5003;34101;53.430;-2.224;2022-10-03T03:18:17;9;8;
46681;PMS5003;34101;53.430;-2.224;2022-10-03T03:21:06;6;6;
46681;PMS5003;34101;53.430;-2.224;2022-10-03T03:23:48;9;7;
46681;PMS5003;34101;53.430;-2.224;2022-10-03T03:26:41;6;6;
46681;PMS5003;34101;53.430;-2.224;2022-10-03T03:29:21;7;5;
46681;PMS5003;34101;53.430;-2.224;2022-10-03T03:31:59;8;7;
46681;PMS5003;34101;53.430;-2.224;2022-10-03T03:34:33;7;6;
46681;PMS5003;34101;53.430;-2.224;2022-10-03T03:37:10;4;4;
46681;PMS5003;34101;53.430;-2.224;2022-10-03T03:39:48;8;5;
46681;PMS5003;34101;53.430;-2.224;2022-10-03T03:42:34;4;4;
46681;PMS5003;34101;53.430;-2.224;2022-10-03T03:45:23;7;6;
46681;PMS5003;34101;53.430;-2.224;2022-10-03T03:48:05;5;5;
46681;PMS5003;34101;53.430;-2.224;2022-10-03T03:50:47;7;6;
46681;PMS5003;34101;53.430;-2.224;2022-10-03T03:53:29;7;6;
46681;PMS5003;34101;53.430;-2.224;2022-10-03T03:56:14;7;7;
46681;PMS5003;34101;53.430;-2.224;2022-10-03T03:58:55;6;6;
46681;PMS5003;34101;53.430;-2.224;2022-10-03T04:01:35;5;5;
46681;PMS5003;34101;53.430;-2.224;2022-10-03T04:04:18;7;4;
46681;PMS5003;34101;53.430;-2.224;2022-10-03T04:07:01;5;5;
46681;PMS5003;34101;53.430;-2.224;2022-10-03T04:09:43;6;6;
46681;PMS5003;34101;53.430;-2.224;2022-10-03T04:12:31;8;7;
46681;PMS5003;34101;53.430;-2.224;2022-10-03T04:15:15;10;7;
46681;PMS5003;34101;53.430;-2.224;2022-10-03T04:17:59;6;6;
46681;PMS5003;34101;53.430;-2.224;2022-10-03T04:20:44;9;7;
46681;PMS5003;34101;53.430;-2.224;2022-10-03T04:23:30;8;6;
46681;PMS5003;34101;53.430;-2.224;2022-10-03T04:26:19;11;7;
46681;PMS5003;34101;53.430;-2.224;2022-10-03T04:29:04;5;5;
46681;PMS5003;34101;53.430;-2.224;2022-10-03T04:32:06;7;7;
46681;PMS5003;34101;53.430;-2.224;2022-10-03T04:34:47;9;6;
46681;PMS5003;34101;53.430;-2.224;2022-10-03T04:37:33;9;9;
46681;PMS5003;34101;53.430;-2.224;2022-10-03T04:40:16;4;4;
46681;PMS5003;34101;53.430;-2.224;2022-10-03T04:42:57;7;7;
46681;PMS5003;34101;53.430;-2.224;2022-10-03T04:45:36;7;7;
46681;PMS5003;34101;53.430;-2.224;2022-10-03T04:48:12;9;7;
46681;PMS5003;34101;53.430;-2.224;2022-10-03T04:50:44;4;4;
46681;PMS5003;34101;53.430;-2.224;2022-10-03T04:53:25;11;9;
46681;PMS5003;34101;53.430;-2.224;2022-10-03T04:56:10;6;6;
46681;PMS5003;34101;53.430;-2.224;2022-10-03T04:58:49;7;7;
46681;PMS5003;34101;53.430;-2.224;2022-10-03T05:01:22;6;5;
46681;PMS5003;34101;53.430;-2.224;2022-10-03T05:04:00;5;5;
46681;PMS5003;34101;53.430;-2.224;2022-10-03T05:06:35;9;7;
46681;PMS5003;34101;53.430;-2.224;2022-10-03T05:09:14;5;4;
46681;PMS5003;34101;53.430;-2.224;2022-10-03T05:11:52;6;6;
46681;PMS5003;34101;53.430;-2.224;2022-10-03T05:14:30;5;5;
46681;PMS5003;34101;53.430;-2.224;2022-10-03T05:17:12;5;5;
46681;PMS5003;34101;53.430;-2.224;2022-10-03T05:19:46;7;6;
46681;PMS5003;34101;53.430;-2.224;2022-10-03T05:22:31;7;7;
46681;PMS5003;34101;53.430;-2.224;2022-10-03T05:25:14;5;5;
46681;PMS5003;34101;53.430;-2.224;2022-10-03T05:27:50;7;5;
46681;PMS5003;34101;53.430;-2.224;2022-10-03T05:30:26;6;5;
46681;PMS5003;34101;53.430;-2.224;2022-10-03T05:33:02;6;5;
46681;PMS5003;34101;53.430;-2.224;2022-10-03T05:35:42;7;7;
46681;PMS5003;34101;53.430;-2.224;2022-10-03T05:38:29;6;6;
46681;PMS5003;34101;53.430;-2.224;2022-10-03T05:41:18;5;5;
46681;PMS5003;34101;53.430;-2.224;2022-10-03T05:43:54;11;7;
46681;PMS5003;34101;53.430;-2.224;2022-10-03T05:46:35;7;7;
46681;PMS5003;34101;53.430;-2.224;2022-10-03T05:49:17;8;6;
46681;PMS5003;34101;53.430;-2.224;2022-10-03T05:52:37;5;5;
46681;PMS5003;34101;53.430;-2.224;2022-10-03T05:55:24;6;6;
46681;PMS5003;34101;53.430;-2.224;2022-10-03T06:00:17;6;5;
46681;PMS5003;34101;53.430;-2.224;2022-10-03T06:03:09;6;6;
46681;PMS5003;34101;53.430;-2.224;2022-10-03T06:05:58;7;5;
46681;PMS5003;34101;53.430;-2.224;2022-10-03T06:08:45;6;6;
46681;PMS5003;34101;53.430;-2.224;2022-10-03T06:11:25;5;4;
46681;PMS5003;34101;53.430;-2.224;2022-10-03T06:14:13;10;9;
46681;PMS5003;34101;53.430;-2.224;2022-10-03T06:16:55;7;6;
46681;PMS5003;34101;53.430;-2.224;2022-10-03T06:19:42;7;7;
46681;PMS5003;34101;53.430;-2.224;2022-10-03T06:22:29;6;6;
46681;PMS5003;34101;53.430;-2.224;2022-10-03T06:25:51;10;10;
46681;PMS5003;34101;53.430;-2.224;2022-10-03T06:29:17;7;6;
46681;PMS5003;34101;53.430;-2.224;2022-10-03T06:32:47;7;7;
46681;PMS5003;34101;53.430;-2.224;2022-10-03T06:34:01;8;8;
46681;PMS5003;34101;53.430;-2.224;2022-10-03T06:37:20;7;7;
46681;PMS5003;34101;53.430;-2.224;2022-10-03T06:40:34;8;8;
46681;PMS5003;34101;53.430;-2.224;2022-10-03T06:43:39;7;7;
46681;PMS5003;34101;53.430;-2.224;2022-10-03T06:46:29;8;8;
46681;PMS5003;34101;53.430;-2.224;2022-10-03T06:49:18;8;8;
46681;PMS5003;34101;53.430;-2.224;2022-10-03T06:52:06;6;6;
46681;PMS5003;34101;53.430;-2.224;2022-10-03T06:55:21;8;7;
46681;PMS5003;34101;53.430;-2.224;2022-10-03T06:58:04;8;7;
46681;PMS5003;34101;53.430;-2.224;2022-10-03T07:00:53;10;8;
46681;PMS5003;34101;53.430;-2.224;2022-10-03T07:03:35;12;8;
46681;PMS5003;34101;53.430;-2.224;2022-10-03T07:06:26;8;8;
46681;PMS5003;34101;53.430;-2.224;2022-10-03T07:09:15;6;6;
46681;PMS5003;34101;53.430;-2.224;2022-10-03T07:11:44;7;7;
46681;PMS5003;34101;53.430;-2.224;2022-10-03T07:14:45;13;10;
46681;PMS5003;34101;53.430;-2.224;2022-10-03T07:17:31;11;10;
46681;PMS5003;34101;53.430;-2.224;2022-10-03T07:20:16;9;9;
46681;PMS5003;34101;53.430;-2.224;2022-10-03T07:23:39;11;11;
46681;PMS5003;34101;53.430;-2.224;2022-10-03T07:26:28;17;14;
46681;PMS5003;34101;53.430;-2.224;2022-10-03T07:29:32;11;10;
46681;PMS5003;34101;53.430;-2.224;2022-10-03T07:32:19;15;13;
46681;PMS5003;34101;53.430;-2.224;2022-10-03T07:35:15;10;10;
46681;PMS5003;34101;53.430;-2.224;2022-10-03T07:38:06;11;11;
46681;PMS5003;34101;53.430;-2.224;2022-10-03T07:43:19;14;14;
46681;PMS5003;34101;53.430;-2.224;2022-10-03T07:46:15;9;9;
46681;PMS5003;34101;53.430;-2.224;2022-10-03T07:48:49;9;9;
46681;PMS5003;34101;53.430;-2.224;2022-10-03T07:51:34;9;9;
46681;PMS5003;34101;53.430;-2.224;2022-10-03T07:54:14;14;12;
46681;PMS5003;34101;53.430;-2.224;2022-10-03T07:57:31;10;10;
46681;PMS5003;34101;53.430;-2.224;2022-10-03T08:00:15;13;13;
46681;PMS5003;34101;53.430;-2.224;2022-10-03T08:02:55;13;11;
46681;PMS5003;34101;53.430;-2.224;2022-10-03T08:05:15;13;11;
46681;PMS5003;34101;53.430;-2.224;2022-10-03T08:07:59;9;9;
46681;PMS5003;34101;53.430;-2.224;2022-10-03T08:10:55;6;6;
46681;PMS5003;34101;53.430;-2.224;2022-10-03T08:13:40;7;7;
46681;PMS5003;34101;53.430;-2.224;2022-10-03T08:16:27;10;9;
46681;PMS5003;34101;53.430;-2.224;2022-10-03T08:19:24;12;8;
46681;PMS5003;34101;53.430;-2.224;2022-10-03T08:22:09;8;8;
46681;PMS5003;34101;53.430;-2.224;2022-10-03T08:24:51;5;5;
46681;PMS5003;34101;53.430;-2.224;2022-10-03T08:27:32;6;6;
46681;PMS5003;34101;53.430;-2.224;2022-10-03T08:30:26;5;5;
46681;PMS5003;34101;53.430;-2.224;2022-10-03T08:33:15;6;6;
46681;PMS5003;34101;53.430;-2.224;2022-10-03T08:36:15;4;4;
46681;PMS5003;34101;53.430;-2.224;2022-10-03T08:39:08;7;7;
46681;PMS5003;34101;53.430;-2.224;2022-10-03T08:41:54;5;4;
46681;PMS5003;34101;53.430;-2.224;2022-10-03T08:44:58;7;5;
46681;PMS5003;34101;53.430;-2.224;2022-10-03T08:48:33;3;3;
46681;PMS5003;34101;53.430;-2.224;2022-10-03T08:52:19;2;2;
46681;PMS5003;34101;53.430;-2.224;2022-10-03T08:55:17;5;4;
46681;PMS5003;34101;53.430;-2.224;2022-10-03T08:58:24;6;4;
46681;PMS5003;34101;53.430;-2.224;2022-10-03T09:01:18;3;2;
46681;PMS5003;34101;53.430;-2.224;2022-10-03T09:04:04;3;3;
46681;PMS5003;34101;53.430;-2.224;2022-10-03T09:07:07;3;3;
46681;PMS5003;34101;53.430;-2.224;2022-10-03T09:10:09;4;4;
46681;PMS5003;34101;53.430;-2.224;2022-10-03T09:13:04;5;4;
46681;PMS5003;34101;53.430;-2.224;2022-10-03T09:16:04;4;4;
46681;PMS5003;34101;53.430;-2.224;2022-10-03T09:19:09;5;5;
46681;PMS5003;34101;53.430;-2.224;2022-10-03T09:23:02;5;5;
46681;PMS5003;34101;53.430;-2.224;2022-10-03T09:25:53;6;5;
46681;PMS5003;34101;53.430;-2.224;2022-10-03T09:28:41;6;5;
46681;PMS5003;34101;53.430;-2.224;2022-10-03T09:31:24;5;4;
46681;PMS5003;34101;53.430;-2.224;2022-10-03T09:34:17;6;4;
46681;PMS5003;34101;53.430;-2.224;2022-10-03T09:37:13;2;2;
46681;PMS5003;34101;53.430;-2.224;2022-10-03T09:40:00;4;4;
46681;PMS5003;34101;53.430;-2.224;2022-10-03T09:42:52;5;4;
46681;PMS5003;34101;53.430;-2.224;2022-10-03T09:45:32;2;2;
46681;PMS5003;34101;53.430;-2.224;2022-10-03T09:48:19;2;2;
46681;PMS5003;34101;53.430;-2.224;2022-10-03T09:51:06;2;2;
46681;PMS5003;34101;53.430;-2.224;2022-10-03T09:54:52;2;2;
46681;PMS5003;34101;53.430;-2.224;2022-10-03T09:57:51;3;3;
46681;PMS5003;34101;53.430;-2.224;2022-10-03T10:00:31;1;1;
46681;PMS5003;34101;53.430;-2.224;2022-10-03T10:05:35;2;2;
46681;PMS5003;34101;53.430;-2.224;2022-10-03T10:08:59;3;2;
46681;PMS5003;34101;53.430;-2.224;2022-10-03T10:14:32;2;1;
46681;PMS5003;34101;53.430;-2.224;2022-10-03T10:17:27;2;1;
46681;PMS5003;34101;53.430;-2.224;2022-10-03T10:20:22;1;1;
46681;PMS5003;34101;53.430;-2.224;2022-10-03T10:23:06;4;2;
46681;PMS5003;34101;53.430;-2.224;2022-10-03T10:25:51;3;2;
46681;PMS5003;34101;53.430;-2.224;2022-10-03T10:29:12;2;2;
46681;PMS5003;34101;53.430;-2.224;2022-10-03T10:32:05;7;2;
46681;PMS5003;34101;53.430;-2.224;2022-10-03T10:36:37;1;1;
46681;PMS5003;34101;53.430;-2.224;2022-10-03T10:39:47;5;2;
46681;PMS5003;34101;53.430;-2.224;2022-10-03T10:42:37;2;2;
46681;PMS5003;34101;53.430;-2.224;2022-10-03T10:45:13;2;2;
46681;PMS5003;34101;53.430;-2.224;2022-10-03T10:45:22;2;2;
46681;PMS5003;34101;53.430;-2.224;2022-10-03T10:50:24;3;2;
46681;PMS5003;34101;53.430;-2.224;2022-10-03T10:55:38;1;1;
46681;PMS5003;34101;53.430;-2.224;2022-10-03T10:58:35;1;1;
46681;PMS5003;34101;53.430;-2.224;2022-10-03T11:01:45;2;2;
46681;PMS5003;34101;53.430;-2.224;2022-10-03T11:04:11;2;2;
46681;PMS5003;34101;53.430;-2.224;2022-10-03T11:07:36;2;2;
46681;PMS5003;34101;53.430;-2.224;2022-10-03T11:10:32;2;2;
46681;PMS5003;34101;53.430;-2.224;2022-10-03T11:14:15;2;2;
46681;PMS5003;34101;53.430;-2.224;2022-10-03T11:17:09;4;4;
46681;PMS5003;34101;53.430;-2.224;2022-10-03T11:22:17;2;2;
46681;PMS5003;34101;53.430;-2.224;2022-10-03T11:27:25;3;3;
46681;PMS5003;34101;53.430;-2.224;2022-10-03T11:30:20;3;2;
46681;PMS5003;34101;53.430;-2.224;2022-10-03T11:33:17;2;2;
46681;PMS5003;34101;53.430;-2.224;2022-10-03T11:36:09;3;3;
46681;PMS5003;34101;53.430;-2.224;2022-10-03T11:38:56;2;2;
46681;PMS5003;34101;53.430;-2.224;2022-10-03T11:41:35;5;2;
46681;PMS5003;34101;53.430;-2.224;2022-10-03T11:44:13;3;3;
46681;PMS5003;34101;53.430;-2.224;2022-10-03T11:46:58;5;3;
46681;PMS5003;34101;53.430;-2.224;2022-10-03T11:50:46;4;3;
46681;PMS5003;34101;53.430;-2.224;2022-10-03T11:53:20;4;3;
46681;PMS5003;34101;53.430;-2.224;2022-10-03T11:56:01;3;3;
46681;PMS5003;34101;53.430;-2.224;2022-10-03T11:58:50;3;1;
46681;PMS5003;34101;53.430;-2.224;2022-10-03T12:01:28;3;3;
46681;PMS5003;34101;53.430;-2.224;2022-10-03T12:04:07;4;2;
46681;PMS5003;34101;53.430;-2.224;2022-10-03T12:06:48;5;4;
46681;PMS5003;34101;53.430;-2.224;2022-10-03T12:09:24;3;3;
46681;PMS5003;34101;53.430;-2.224;2022-10-03T12:12:05;5;3;
46681;PMS5003;34101;53.430;-2.224;2022-10-03T12:14:40;3;3;
46681;PMS5003;34101;53.430;-2.224;2022-10-03T12:17:12;4;4;
46681;PMS5003;34101;53.430;-2.224;2022-10-03T12:19:45;1;1;
46681;PMS5003;34101;53.430;-2.224;2022-10-03T12:22:28;5;3;
46681;PMS5003;34101;53.430;-2.224;2022-10-03T12:25:15;3;3;
46681;PMS5003;34101;53.430;-2.224;2022-10-03T12:27:47;3;3;
46681;PMS5003;34101;53.430;-2.224;2022-10-03T12:30:22;5;3;
46681;PMS5003;34101;53.430;-2.224;2022-10-03T12:32:57;3;3;
46681;PMS5003;34101;53.430;-2.224;2022-10-03T12:35:39;4;4;
46681;PMS5003;34101;53.430;-2.224;2022-10-03T12:38:21;4;3;
46681;PMS5003;34101;53.430;-2.224;2022-10-03T12:41:02;3;3;
46681;PMS5003;34101;53.430;-2.224;2022-10-03T12:43:44;5;3;
46681;PMS5003;34101;53.430;-2.224;2022-10-03T12:46:22;6;3;
46681;PMS5003;34101;53.430;-2.224;2022-10-03T12:49:01;6;5;
46681;PMS5003;34101;53.430;-2.224;2022-10-03T12:51:35;5;3;
46681;PMS5003;34101;53.430;-2.224;2022-10-03T12:54:19;4;4;
46681;PMS5003;34101;53.430;-2.224;2022-10-03T12:57:06;7;4;
46681;PMS5003;34101;53.430;-2.224;2022-10-03T12:59:53;6;6;
46681;PMS5003;34101;53.430;-2.224;2022-10-03T13:02:29;5;3;
46681;PMS5003;34101;53.430;-2.224;2022-10-03T13:05:09;4;2;
46681;PMS5003;34101;53.430;-2.224;2022-10-03T13:08:59;4;3;
46681;PMS5003;34101;53.430;-2.224;2022-10-03T13:11:38;6;6;
46681;PMS5003;34101;53.430;-2.224;2022-10-03T13:14:24;3;3;
46681;PMS5003;34101;53.430;-2.224;2022-10-03T13:16:58;6;4;
46681;PMS5003;34101;53.430;-2.224;2022-10-03T13:19:38;4;3;
46681;PMS5003;34101;53.430;-2.224;2022-10-03T13:22:19;3;3;
46681;PMS5003;34101;53.430;-2.224;2022-10-03T13:24:56;4;4;
46681;PMS5003;34101;53.430;-2.224;2022-10-03T13:27:32;6;4;
46681;PMS5003;34101;53.430;-2.224;2022-10-03T13:30:12;6;4;
46681;PMS5003;34101;53.430;-2.224;2022-10-03T13:32:44;4;4;
46681;PMS5003;34101;53.430;-2.224;2022-10-03T13:35:24;6;4;
46681;PMS5003;34101;53.430;-2.224;2022-10-03T13:38:03;4;3;
46681;PMS5003;34101;53.430;-2.224;2022-10-03T13:41:43;6;6;
46681;PMS5003;34101;53.430;-2.224;2022-10-03T13:44:30;3;3;
46681;PMS5003;34101;53.430;-2.224;2022-10-03T13:47:03;5;5;
46681;PMS5003;34101;53.430;-2.224;2022-10-03T13:49:44;3;3;
46681;PMS5003;34101;53.430;-2.224;2022-10-03T13:52:20;4;4;
46681;PMS5003;34101;53.430;-2.224;2022-10-03T13:55:03;5;4;
46681;PMS5003;34101;53.430;-2.224;2022-10-03T13:57:43;6;4;
46681;PMS5003;34101;53.430;-2.224;2022-10-03T14:00:21;3;3;
46681;PMS5003;34101;53.430;-2.224;2022-10-03T14:02:54;5;5;
46681;PMS5003;34101;53.430;-2.224;2022-10-03T14:05:37;4;4;
46681;PMS5003;34101;53.430;-2.224;2022-10-03T14:08:23;4;4;
46681;PMS5003;34101;53.430;-2.224;2022-10-03T14:11:06;4;4;
46681;PMS5003;34101;53.430;-2.224;2022-10-03T14:13:51;4;4;
46681;PMS5003;34101;53.430;-2.224;2022-10-03T14:16:32;9;7;
46681;PMS5003;34101;53.430;-2.224;2022-10-03T14:19:05;7;5;
46681;PMS5003;34101;53.430;-2.224;2022-10-03T14:21:43;7;6;
46681;PMS5003;34101;53.430;-2.224;2022-10-03T14:24:35;4;4;
46681;PMS5003;34101;53.430;-2.224;2022-10-03T14:27:15;3;2;
46681;PMS5003;34101;53.430;-2.224;2022-10-03T14:30:02;5;4;
46681;PMS5003;34101;53.430;-2.224;2022-10-03T14:32:33;6;4;
46681;PMS5003;34101;53.430;-2.224;2022-10-03T14:35:14;6;4;
46681;PMS5003;34101;53.430;-2.224;2022-10-03T14:37:54;7;6;
46681;PMS5003;34101;53.430;-2.224;2022-10-03T14:40:27;5;5;
46681;PMS5003;34101;53.430;-2.224;2022-10-03T14:43:06;7;4;
46681;PMS5003;34101;53.430;-2.224;2022-10-03T14:45:46;4;4;
46681;PMS5003;34101;53.430;-2.224;2022-10-03T14:48:17;7;4;
46681;PMS5003;34101;53.430;-2.224;2022-10-03T14:50:48;6;5;
46681;PMS5003;34101;53.430;-2.224;2022-10-03T14:53:20;5;5;
46681;PMS5003;34101;53.430;-2.224;2022-10-03T14:55:54;8;6;
46681;PMS5003;34101;53.430;-2.224;2022-10-03T14:58:25;6;5;
46681;PMS5003;34101;53.430;-2.224;2022-10-03T15:01:00;4;3;
46681;PMS5003;34101;53.430;-2.224;2022-10-03T15:03:32;5;4;
46681;PMS5003;34101;53.430;-2.224;2022-10-03T15:06:16;6;5;
46681;PMS5003;34101;53.430;-2.224;2022-10-03T15:08:47;5;5;
46681;PMS5003;34101;53.430;-2.224;2022-10-03T15:11:21;3;3;
46681;PMS5003;34101;53.430;-2.224;2022-10-03T15:13:53;5;5;
46681;PMS5003;34101;53.430;-2.224;2022-10-03T15:16:23;6;4;
46681;PMS5003;34101;53.430;-2.224;2022-10-03T15:18:52;4;4;
46681;PMS5003;34101;53.430;-2.224;2022-10-03T15:21:22;3;3;
46681;PMS5003;34101;53.430;-2.224;2022-10-03T15:23:53;4;4;
46681;PMS5003;34101;53.430;-2.224;2022-10-03T15:26:24;4;3;
46681;PMS5003;34101;53.430;-2.224;2022-10-03T15:28:53;4;4;
46681;PMS5003;34101;53.430;-2.224;2022-10-03T15:31:27;5;5;
46681;PMS5003;34101;53.430;-2.224;2022-10-03T15:34:00;5;5;
46681;PMS5003;34101;53.430;-2.224;2022-10-03T15:36:30;7;4;
46681;PMS5003;34101;53.430;-2.224;2022-10-03T15:39:02;4;4;
46681;PMS5003;34101;53.430;-2.224;2022-10-03T15:41:34;5;4;
46681;PMS5003;34101;53.430;-2.224;2022-10-03T15:44:14;6;4;
46681;PMS5003;34101;53.430;-2.224;2022-10-03T15:46:47;3;3;
46681;PMS5003;34101;53.430;-2.224;2022-10-03T15:49:18;7;7;
46681;PMS5003;34101;53.430;-2.224;2022-10-03T15:51:52;5;5;
46681;PMS5003;34101;53.430;-2.224;2022-10-03T15:54:22;5;4;
46681;PMS5003;34101;53.430;-2.224;2022-10-03T15:56:52;4;4;
46681;PMS5003;34101;53.430;-2.224;2022-10-03T15:59:22;4;4;
46681;PMS5003;34101;53.430;-2.224;2022-10-03T16:01:53;4;3;
46681;PMS5003;34101;53.430;-2.224;2022-10-03T16:04:23;4;4;
46681;PMS5003;34101;53.430;-2.224;2022-10-03T16:06:56;6;5;
46681;PMS5003;34101;53.430;-2.224;2022-10-03T16:09:29;4;3;
46681;PMS5003;34101;53.430;-2.224;2022-10-03T16:12:13;8;5;
46681;PMS5003;34101;53.430;-2.224;2022-10-03T16:15:05;5;5;
46681;PMS5003;34101;53.430;-2.224;2022-10-03T16:17:44;4;4;
46681;PMS5003;34101;53.430;-2.224;2022-10-03T16:20:16;5;5;
46681;PMS5003;34101;53.430;-2.224;2022-10-03T16:22:48;6;5;
46681;PMS5003;34101;53.430;-2.224;2022-10-03T16:25:18;5;5;
46681;PMS5003;34101;53.430;-2.224;2022-10-03T16:27:51;9;6;
46681;PMS5003;34101;53.430;-2.224;2022-10-03T16:30:23;5;5;
46681;PMS5003;34101;53.430;-2.224;2022-10-03T16:32:57;3;3;
46681;PMS5003;34101;53.430;-2.224;2022-10-03T16:35:31;5;5;
46681;PMS5003;34101;53.430;-2.224;2022-10-03T16:38:03;6;6;
46681;PMS5003;34101;53.430;-2.224;2022-10-03T16:40:33;5;5;
46681;PMS5003;34101;53.430;-2.224;2022-10-03T16:43:02;5;5;
46681;PMS5003;34101;53.430;-2.224;2022-10-03T16:45:31;6;6;
46681;PMS5003;34101;53.430;-2.224;2022-10-03T16:48:09;6;4;
46681;PMS5003;34101;53.430;-2.224;2022-10-03T16:50:40;7;7;
46681;PMS5003;34101;53.430;-2.224;2022-10-03T16:53:12;5;5;
46681;PMS5003;34101;53.430;-2.224;2022-10-03T16:55:43;8;5;
46681;PMS5003;34101;53.430;-2.224;2022-10-03T16:58:16;6;6;
46681;PMS5003;34101;53.430;-2.224;2022-10-03T17:00:49;7;7;
46681;PMS5003;34101;53.430;-2.224;2022-10-03T17:03:21;7;7;
46681;PMS5003;34101;53.430;-2.224;2022-10-03T17:05:52;8;5;
46681;PMS5003;34101;53.430;-2.224;2022-10-03T17:08:24;8;6;
46681;PMS5003;34101;53.430;-2.224;2022-10-03T17:10:57;4;4;
46681;PMS5003;34101;53.430;-2.224;2022-10-03T17:13:40;5;5;
46681;PMS5003;34101;53.430;-2.224;2022-10-03T17:16:11;6;6;
46681;PMS5003;34101;53.430;-2.224;2022-10-03T17:18:42;5;5;
46681;PMS5003;34101;53.430;-2.224;2022-10-03T17:21:16;7;7;
46681;PMS5003;34101;53.430;-2.224;2022-10-03T17:23:52;8;6;
46681;PMS5003;34101;53.430;-2.224;2022-10-03T17:26:28;7;7;
46681;PMS5003;34101;53.430;-2.224;2022-10-03T17:29:02;12;9;
46681;PMS5003;34101;53.430;-2.224;2022-10-03T17:31:38;6;6;
46681;PMS5003;34101;53.430;-2.224;2022-10-03T17:34:10;7;5;
46681;PMS5003;34101;53.430;-2.224;2022-10-03T17:36:49;7;5;
46681;PMS5003;34101;53.430;-2.224;2022-10-03T17:39:36;7;7;
46681;PMS5003;34101;53.430;-2.224;2022-10-03T17:42:14;9;9;
46681;PMS5003;34101;53.430;-2.224;2022-10-03T17:44:55;8;6;
46681;PMS5003;34101;53.430;-2.224;2022-10-03T17:47:30;6;5;
46681;PMS5003;34101;53.430;-2.224;2022-10-03T17:50:08;5;5;
46681;PMS5003;34101;53.430;-2.224;2022-10-03T17:52:42;7;7;
46681;PMS5003;34101;53.430;-2.224;2022-10-03T17:55:14;4;4;
46681;PMS5003;34101;53.430;-2.224;2022-10-03T17:57:47;8;6;
46681;PMS5003;34101;53.430;-2.224;2022-10-03T18:00:20;7;7;
46681;PMS5003;34101;53.430;-2.224;2022-10-03T18:02:51;11;10;
46681;PMS5003;34101;53.430;-2.224;2022-10-03T18:05:25;5;5;
46681;PMS5003;34101;53.430;-2.224;2022-10-03T18:07:55;7;7;
46681;PMS5003;34101;53.430;-2.224;2022-10-03T18:10:31;10;7;
46681;PMS5003;34101;53.430;-2.224;2022-10-03T18:13:06;7;7;
46681;PMS5003;34101;53.430;-2.224;2022-10-03T18:15:50;8;8;
46681;PMS5003;34101;53.430;-2.224;2022-10-03T18:18:42;6;6;
46681;PMS5003;34101;53.430;-2.224;2022-10-03T18:21:23;9;9;
46681;PMS5003;34101;53.430;-2.224;2022-10-03T18:24:10;11;10;
46681;PMS5003;34101;53.430;-2.224;2022-10-03T18:26:51;11;9;
46681;PMS5003;34101;53.430;-2.224;2022-10-03T18:29:30;10;9;
46681;PMS5003;34101;53.430;-2.224;2022-10-03T18:32:09;12;9;
46681;PMS5003;34101;53.430;-2.224;2022-10-03T18:34:41;13;10;
46681;PMS5003;34101;53.430;-2.224;2022-10-03T18:37:15;12;10;
46681;PMS5003;34101;53.430;-2.224;2022-10-03T18:40:14;9;9;